sensor_id;sensor_type;location;lat;lon;timestamp;P1;durP1;ratioP1;P2;durP2;ratioP2
60819;SDS011;46641;48.904;9.126;2023-02-11T00:02:11;20.55;;;14.93;;
60819;SDS011;46641;48.904;9.126;2023-02-11T00:07:02;21.53;;;15.37;;
60819;SDS011;46641;48.904;9.126;2023-02-11T00:11:52;19.00;;;14.33;;
60819;SDS011;46641;48.904;9.126;2023-02-11T00:16:42;21.77;;;15.97;;
60819;SDS011;46641;48.904;9.126;2023-02-11T00:21:33;20.77;;;14.87;;
60819;SDS011;46641;48.904;9.126;2023-02-11T00:26:25;21.07;;;13.93;;
60819;SDS011;46641;48.904;9.126;2023-02-11T00:31:19;20.80;;;14.50;;
60819;SDS011;46641;48.904;9.126;2023-02-11T00:36:13;21.40;;;15.03;;
60819;SDS011;46641;48.904;9.126;2023-02-11T00:41:07;19.87;;;14.80;;
60819;SDS011;46641;48.904;9.126;2023-02-11T00:45:58;20.27;;;14.95;;
60819;SDS011;46641;48.904;9.126;2023-02-11T00:50:48;19.93;;;13.50;;
60819;SDS011;46641;48.904;9.126;2023-02-11T00:55:39;18.70;;;14.47;;
60819;SDS011;46641;48.904;9.126;2023-02-11T01:00:29;18.53;;;14.20;;
60819;SDS011;46641;48.904;9.126;2023-02-11T01:05:20;21.80;;;14.27;;
60819;SDS011;46641;48.904;9.126;2023-02-11T01:10:11;19.73;;;13.83;;
60819;SDS011;46641;48.904;9.126;2023-02-11T01:15:02;21.53;;;15.20;;
60819;SDS011;46641;48.904;9.126;2023-02-11T01:19:52;23.73;;;18.33;;
60819;SDS011;46641;48.904;9.126;2023-02-11T01:24:43;22.70;;;15.97;;
60819;SDS011;46641;48.904;9.126;2023-02-11T01:29:33;24.63;;;16.30;;
60819;SDS011;46641;48.904;9.126;2023-02-11T01:34:23;22.20;;;16.02;;
60819;SDS011;46641;48.904;9.126;2023-02-11T01:39:14;19.90;;;15.18;;
60819;SDS011;46641;48.904;9.126;2023-02-11T01:49:28;23.07;;;15.53;;
60819;SDS011;46641;48.904;9.126;2023-02-11T01:54:22;20.30;;;14.83;;
60819;SDS011;46641;48.904;9.126;2023-02-11T01:59:38;20.50;;;14.90;;
60819;SDS011;46641;48.904;9.126;2023-02-11T02:04:34;21.27;;;14.93;;
60819;SDS011;46641;48.904;9.126;2023-02-11T02:09:32;21.23;;;15.53;;
60819;SDS011;46641;48.904;9.126;2023-02-11T02:14:27;22.77;;;16.27;;
60819;SDS011;46641;48.904;9.126;2023-02-11T02:19:23;21.90;;;16.37;;
60819;SDS011;46641;48.904;9.126;2023-02-11T02:35:23;24.63;;;16.23;;
60819;SDS011;46641;48.904;9.126;2023-02-11T02:40:30;20.63;;;13.97;;
60819;SDS011;46641;48.904;9.126;2023-02-11T02:45:23;24.77;;;16.50;;
60819;SDS011;46641;48.904;9.126;2023-02-11T02:50:14;23.35;;;15.63;;
60819;SDS011;46641;48.904;9.126;2023-02-11T03:00:03;21.87;;;14.77;;
60819;SDS011;46641;48.904;9.126;2023-02-11T03:05:17;20.93;;;15.30;;
60819;SDS011;46641;48.904;9.126;2023-02-11T03:15:19;22.70;;;15.63;;
60819;SDS011;46641;48.904;9.126;2023-02-11T03:20:12;24.97;;;16.87;;
60819;SDS011;46641;48.904;9.126;2023-02-11T03:25:05;24.17;;;16.57;;
60819;SDS011;46641;48.904;9.126;2023-02-11T03:40:31;19.97;;;14.73;;
60819;SDS011;46641;48.904;9.126;2023-02-11T03:45:25;20.57;;;15.70;;
60819;SDS011;46641;48.904;9.126;2023-02-11T03:50:17;19.47;;;14.23;;
60819;SDS011;46641;48.904;9.126;2023-02-11T03:55:12;19.87;;;13.60;;
60819;SDS011;46641;48.904;9.126;2023-02-11T04:00:06;21.57;;;13.90;;
60819;SDS011;46641;48.904;9.126;2023-02-11T04:04:58;18.30;;;13.60;;
60819;SDS011;46641;48.904;9.126;2023-02-11T04:09:49;17.70;;;12.90;;
60819;SDS011;46641;48.904;9.126;2023-02-11T04:14:39;19.73;;;12.60;;
60819;SDS011;46641;48.904;9.126;2023-02-11T04:19:29;20.00;;;12.43;;
60819;SDS011;46641;48.904;9.126;2023-02-11T04:24:19;16.97;;;12.93;;
60819;SDS011;46641;48.904;9.126;2023-02-11T04:29:10;17.63;;;12.57;;
60819;SDS011;46641;48.904;9.126;2023-02-11T04:34:00;17.47;;;13.13;;
60819;SDS011;46641;48.904;9.126;2023-02-11T04:38:50;19.07;;;12.60;;
60819;SDS011;46641;48.904;9.126;2023-02-11T04:43:41;19.83;;;13.27;;
60819;SDS011;46641;48.904;9.126;2023-02-11T04:48:31;18.33;;;13.00;;
60819;SDS011;46641;48.904;9.126;2023-02-11T04:53:21;21.48;;;13.82;;
60819;SDS011;46641;48.904;9.126;2023-02-11T04:58:11;19.35;;;12.02;;
60819;SDS011;46641;48.904;9.126;2023-02-11T05:03:02;20.00;;;13.60;;
60819;SDS011;46641;48.904;9.126;2023-02-11T05:07:52;19.63;;;14.10;;
60819;SDS011;46641;48.904;9.126;2023-02-11T05:12:42;19.00;;;13.45;;
60819;SDS011;46641;48.904;9.126;2023-02-11T05:17:33;18.98;;;14.95;;
60819;SDS011;46641;48.904;9.126;2023-02-11T05:22:23;23.97;;;16.70;;
60819;SDS011;46641;48.904;9.126;2023-02-11T05:27:13;21.27;;;15.37;;
60819;SDS011;46641;48.904;9.126;2023-02-11T05:32:03;20.30;;;14.35;;
60819;SDS011;46641;48.904;9.126;2023-02-11T05:36:54;20.27;;;13.97;;
60819;SDS011;46641;48.904;9.126;2023-02-11T05:41:44;16.87;;;12.43;;
60819;SDS011;46641;48.904;9.126;2023-02-11T05:46:34;19.80;;;14.20;;
60819;SDS011;46641;48.904;9.126;2023-02-11T05:51:25;21.05;;;15.70;;
60819;SDS011;46641;48.904;9.126;2023-02-11T05:56:15;20.13;;;14.50;;
60819;SDS011;46641;48.904;9.126;2023-02-11T06:01:05;19.55;;;13.93;;
60819;SDS011;46641;48.904;9.126;2023-02-11T06:05:55;21.60;;;14.73;;
60819;SDS011;46641;48.904;9.126;2023-02-11T06:10:46;18.20;;;13.23;;
60819;SDS011;46641;48.904;9.126;2023-02-11T06:15:36;20.80;;;15.30;;
60819;SDS011;46641;48.904;9.126;2023-02-11T06:20:27;20.45;;;16.17;;
60819;SDS011;46641;48.904;9.126;2023-02-11T06:25:17;21.43;;;16.00;;
60819;SDS011;46641;48.904;9.126;2023-02-11T06:30:08;22.87;;;15.77;;
60819;SDS011;46641;48.904;9.126;2023-02-11T06:34:59;20.30;;;16.10;;
60819;SDS011;46641;48.904;9.126;2023-02-11T06:39:49;20.83;;;15.87;;
60819;SDS011;46641;48.904;9.126;2023-02-11T06:44:39;21.37;;;15.90;;
60819;SDS011;46641;48.904;9.126;2023-02-11T06:49:30;21.40;;;15.88;;
60819;SDS011;46641;48.904;9.126;2023-02-11T06:54:20;17.20;;;13.37;;
60819;SDS011;46641;48.904;9.126;2023-02-11T06:59:17;18.13;;;14.38;;
60819;SDS011;46641;48.904;9.126;2023-02-11T07:04:09;20.97;;;15.20;;
60819;SDS011;46641;48.904;9.126;2023-02-11T07:08:59;19.10;;;12.87;;
60819;SDS011;46641;48.904;9.126;2023-02-11T07:13:50;20.50;;;15.45;;
60819;SDS011;46641;48.904;9.126;2023-02-11T07:18:42;19.87;;;15.23;;
60819;SDS011;46641;48.904;9.126;2023-02-11T07:23:32;22.40;;;15.33;;
60819;SDS011;46641;48.904;9.126;2023-02-11T07:28:23;20.20;;;14.73;;
60819;SDS011;46641;48.904;9.126;2023-02-11T07:33:14;19.65;;;14.43;;
60819;SDS011;46641;48.904;9.126;2023-02-11T07:38:04;20.53;;;15.37;;
60819;SDS011;46641;48.904;9.126;2023-02-11T07:42:54;22.77;;;15.47;;
60819;SDS011;46641;48.904;9.126;2023-02-11T07:47:45;17.70;;;11.30;;
60819;SDS011;46641;48.904;9.126;2023-02-11T07:52:35;12.75;;;9.57;;
60819;SDS011;46641;48.904;9.126;2023-02-11T07:57:25;31.23;;;25.93;;
60819;SDS011;46641;48.904;9.126;2023-02-11T08:02:16;24.83;;;19.17;;
60819;SDS011;46641;48.904;9.126;2023-02-11T08:07:06;26.93;;;18.00;;
60819;SDS011;46641;48.904;9.126;2023-02-11T08:11:57;21.43;;;14.37;;
60819;SDS011;46641;48.904;9.126;2023-02-11T08:16:47;16.77;;;12.47;;
60819;SDS011;46641;48.904;9.126;2023-02-11T08:21:37;19.08;;;13.88;;
60819;SDS011;46641;48.904;9.126;2023-02-11T08:26:29;19.60;;;14.00;;
60819;SDS011;46641;48.904;9.126;2023-02-11T08:31:21;21.50;;;17.88;;
60819;SDS011;46641;48.904;9.126;2023-02-11T08:36:18;18.87;;;13.13;;
60819;SDS011;46641;48.904;9.126;2023-02-11T08:41:10;17.13;;;12.90;;
60819;SDS011;46641;48.904;9.126;2023-02-11T08:46:03;16.60;;;12.60;;
60819;SDS011;46641;48.904;9.126;2023-02-11T08:50:54;16.63;;;12.70;;
60819;SDS011;46641;48.904;9.126;2023-02-11T08:55:49;17.57;;;12.37;;
60819;SDS011;46641;48.904;9.126;2023-02-11T09:00:43;13.97;;;11.23;;
60819;SDS011;46641;48.904;9.126;2023-02-11T09:05:38;19.43;;;14.00;;
60819;SDS011;46641;48.904;9.126;2023-02-11T09:10:30;12.83;;;10.23;;
60819;SDS011;46641;48.904;9.126;2023-02-11T09:15:20;10.37;;;8.57;;
60819;SDS011;46641;48.904;9.126;2023-02-11T09:20:11;12.80;;;10.23;;
60819;SDS011;46641;48.904;9.126;2023-02-11T09:25:01;13.13;;;10.25;;
60819;SDS011;46641;48.904;9.126;2023-02-11T09:29:52;14.20;;;9.93;;
60819;SDS011;46641;48.904;9.126;2023-02-11T09:34:42;12.25;;;10.38;;
60819;SDS011;46641;48.904;9.126;2023-02-11T09:39:32;12.73;;;10.37;;
60819;SDS011;46641;48.904;9.126;2023-02-11T09:44:24;12.43;;;9.43;;
60819;SDS011;46641;48.904;9.126;2023-02-11T09:49:21;12.60;;;9.00;;
60819;SDS011;46641;48.904;9.126;2023-02-11T09:54:20;10.70;;;8.43;;
60819;SDS011;46641;48.904;9.126;2023-02-11T09:59:14;10.57;;;8.53;;
60819;SDS011;46641;48.904;9.126;2023-02-11T10:04:11;11.00;;;7.80;;
60819;SDS011;46641;48.904;9.126;2023-02-11T10:09:07;10.47;;;8.30;;
60819;SDS011;46641;48.904;9.126;2023-02-11T10:24:54;12.20;;;8.57;;
60819;SDS011;46641;48.904;9.126;2023-02-11T10:29:50;12.10;;;7.77;;
60819;SDS011;46641;48.904;9.126;2023-02-11T10:34:45;10.10;;;8.43;;
60819;SDS011;46641;48.904;9.126;2023-02-11T10:39:36;9.77;;;8.23;;
60819;SDS011;46641;48.904;9.126;2023-02-11T10:49:33;12.00;;;9.50;;
60819;SDS011;46641;48.904;9.126;2023-02-11T10:54:25;11.43;;;8.93;;
60819;SDS011;46641;48.904;9.126;2023-02-11T11:04:34;12.20;;;9.80;;
60819;SDS011;46641;48.904;9.126;2023-02-11T11:09:29;12.30;;;9.27;;
60819;SDS011;46641;48.904;9.126;2023-02-11T11:14:32;13.73;;;9.33;;
60819;SDS011;46641;48.904;9.126;2023-02-11T11:19:23;12.63;;;9.20;;
60819;SDS011;46641;48.904;9.126;2023-02-11T11:24:18;13.33;;;9.33;;
60819;SDS011;46641;48.904;9.126;2023-02-11T11:29:22;13.50;;;8.77;;
60819;SDS011;46641;48.904;9.126;2023-02-11T11:34:30;13.00;;;9.27;;
60819;SDS011;46641;48.904;9.126;2023-02-11T11:39:29;11.70;;;9.37;;
60819;SDS011;46641;48.904;9.126;2023-02-11T11:44:30;10.93;;;8.37;;
60819;SDS011;46641;48.904;9.126;2023-02-11T11:49:28;11.30;;;8.13;;
60819;SDS011;46641;48.904;9.126;2023-02-11T11:54:22;12.67;;;8.23;;
60819;SDS011;46641;48.904;9.126;2023-02-11T11:59:16;12.03;;;8.70;;
60819;SDS011;46641;48.904;9.126;2023-02-11T12:14:28;14.53;;;9.87;;
60819;SDS011;46641;48.904;9.126;2023-02-11T12:29:39;18.57;;;11.87;;
60819;SDS011;46641;48.904;9.126;2023-02-11T12:55:27;16.70;;;12.27;;
60819;SDS011;46641;48.904;9.126;2023-02-11T13:00:22;19.00;;;12.80;;
60819;SDS011;46641;48.904;9.126;2023-02-11T13:10:32;18.03;;;14.03;;
60819;SDS011;46641;48.904;9.126;2023-02-11T13:15:30;20.00;;;13.50;;
60819;SDS011;46641;48.904;9.126;2023-02-11T13:25:35;14.27;;;11.63;;
60819;SDS011;46641;48.904;9.126;2023-02-11T13:30:29;15.27;;;12.60;;
60819;SDS011;46641;48.904;9.126;2023-02-11T13:40:24;17.63;;;13.13;;
60819;SDS011;46641;48.904;9.126;2023-02-11T13:45:21;17.97;;;13.10;;
60819;SDS011;46641;48.904;9.126;2023-02-11T13:50:23;16.73;;;13.33;;
60819;SDS011;46641;48.904;9.126;2023-02-11T13:55:21;18.10;;;12.53;;
60819;SDS011;46641;48.904;9.126;2023-02-11T14:00:41;16.03;;;12.67;;
60819;SDS011;46641;48.904;9.126;2023-02-11T14:05:35;15.53;;;12.03;;
60819;SDS011;46641;48.904;9.126;2023-02-11T14:10:48;13.30;;;11.43;;
60819;SDS011;46641;48.904;9.126;2023-02-11T14:15:40;13.87;;;11.70;;
60819;SDS011;46641;48.904;9.126;2023-02-11T14:20:34;14.53;;;12.23;;
60819;SDS011;46641;48.904;9.126;2023-02-11T14:25:27;15.23;;;12.30;;
60819;SDS011;46641;48.904;9.126;2023-02-11T14:30:20;13.97;;;11.23;;
60819;SDS011;46641;48.904;9.126;2023-02-11T14:45:52;12.77;;;11.00;;
60819;SDS011;46641;48.904;9.126;2023-02-11T14:50:47;12.40;;;10.47;;
60819;SDS011;46641;48.904;9.126;2023-02-11T14:55:43;13.60;;;10.13;;
60819;SDS011;46641;48.904;9.126;2023-02-11T15:00:36;13.80;;;11.80;;
60819;SDS011;46641;48.904;9.126;2023-02-11T15:05:36;17.30;;;11.67;;
60819;SDS011;46641;48.904;9.126;2023-02-11T15:10:30;15.00;;;11.17;;
60819;SDS011;46641;48.904;9.126;2023-02-11T15:15:24;14.83;;;12.03;;
60819;SDS011;46641;48.904;9.126;2023-02-11T15:20:19;13.27;;;11.60;;
60819;SDS011;46641;48.904;9.126;2023-02-11T15:25:16;16.83;;;13.40;;
60819;SDS011;46641;48.904;9.126;2023-02-11T15:35:11;14.10;;;12.27;;
60819;SDS011;46641;48.904;9.126;2023-02-11T15:40:16;15.17;;;11.83;;
60819;SDS011;46641;48.904;9.126;2023-02-11T15:45:10;14.33;;;12.63;;
60819;SDS011;46641;48.904;9.126;2023-02-11T15:50:00;16.27;;;13.10;;
60819;SDS011;46641;48.904;9.126;2023-02-11T15:54:51;16.53;;;12.23;;
60819;SDS011;46641;48.904;9.126;2023-02-11T15:59:45;14.97;;;12.77;;
60819;SDS011;46641;48.904;9.126;2023-02-11T16:04:37;17.50;;;13.73;;
60819;SDS011;46641;48.904;9.126;2023-02-11T16:09:35;18.07;;;14.23;;
60819;SDS011;46641;48.904;9.126;2023-02-11T16:19:19;19.00;;;13.70;;
60819;SDS011;46641;48.904;9.126;2023-02-11T16:24:18;17.30;;;15.43;;
60819;SDS011;46641;48.904;9.126;2023-02-11T16:29:15;18.60;;;14.60;;
60819;SDS011;46641;48.904;9.126;2023-02-11T16:34:42;20.07;;;14.70;;
60819;SDS011;46641;48.904;9.126;2023-02-11T16:39:25;16.13;;;12.73;;
60819;SDS011;46641;48.904;9.126;2023-02-11T16:44:16;21.20;;;15.03;;
60819;SDS011;46641;48.904;9.126;2023-02-11T16:54:15;17.00;;;14.07;;
60819;SDS011;46641;48.904;9.126;2023-02-11T16:59:07;18.07;;;13.87;;
60819;SDS011;46641;48.904;9.126;2023-02-11T17:03:57;16.03;;;14.23;;
60819;SDS011;46641;48.904;9.126;2023-02-11T17:08:48;16.40;;;12.97;;
60819;SDS011;46641;48.904;9.126;2023-02-11T17:13:38;16.10;;;13.60;;
60819;SDS011;46641;48.904;9.126;2023-02-11T17:18:30;13.87;;;12.33;;
60819;SDS011;46641;48.904;9.126;2023-02-11T17:23:22;16.97;;;13.80;;
60819;SDS011;46641;48.904;9.126;2023-02-11T17:28:12;18.77;;;14.33;;
60819;SDS011;46641;48.904;9.126;2023-02-11T17:33:02;20.02;;;14.38;;
60819;SDS011;46641;48.904;9.126;2023-02-11T17:37:52;17.63;;;14.55;;
60819;SDS011;46641;48.904;9.126;2023-02-11T17:42:43;18.90;;;14.30;;
60819;SDS011;46641;48.904;9.126;2023-02-11T17:47:33;18.40;;;13.37;;
60819;SDS011;46641;48.904;9.126;2023-02-11T17:52:23;18.13;;;14.33;;
60819;SDS011;46641;48.904;9.126;2023-02-11T17:57:16;21.37;;;14.97;;
60819;SDS011;46641;48.904;9.126;2023-02-11T18:02:08;20.33;;;15.10;;
60819;SDS011;46641;48.904;9.126;2023-02-11T18:07:00;17.43;;;14.70;;
60819;SDS011;46641;48.904;9.126;2023-02-11T18:11:50;18.40;;;15.57;;
60819;SDS011;46641;48.904;9.126;2023-02-11T18:16:41;21.90;;;16.57;;
60819;SDS011;46641;48.904;9.126;2023-02-11T18:21:33;20.97;;;15.23;;
60819;SDS011;46641;48.904;9.126;2023-02-11T18:26:24;19.13;;;14.80;;
60819;SDS011;46641;48.904;9.126;2023-02-11T18:31:17;19.87;;;13.90;;
60819;SDS011;46641;48.904;9.126;2023-02-11T18:36:09;19.00;;;15.87;;
60819;SDS011;46641;48.904;9.126;2023-02-11T18:41:00;18.93;;;14.70;;
60819;SDS011;46641;48.904;9.126;2023-02-11T18:45:51;19.27;;;14.40;;
60819;SDS011;46641;48.904;9.126;2023-02-11T18:50:42;23.23;;;16.45;;
60819;SDS011;46641;48.904;9.126;2023-02-11T18:55:33;20.70;;;14.67;;
60819;SDS011;46641;48.904;9.126;2023-02-11T19:00:23;15.17;;;11.83;;
60819;SDS011;46641;48.904;9.126;2023-02-11T19:05:14;15.93;;;13.57;;
60819;SDS011;46641;48.904;9.126;2023-02-11T19:10:04;19.10;;;15.53;;
60819;SDS011;46641;48.904;9.126;2023-02-11T19:14:55;18.93;;;14.63;;
60819;SDS011;46641;48.904;9.126;2023-02-11T19:19:48;18.40;;;14.97;;
60819;SDS011;46641;48.904;9.126;2023-02-11T19:24:38;19.77;;;15.60;;
60819;SDS011;46641;48.904;9.126;2023-02-11T19:29:29;20.07;;;15.43;;
60819;SDS011;46641;48.904;9.126;2023-02-11T19:34:24;21.03;;;15.07;;
60819;SDS011;46641;48.904;9.126;2023-02-11T19:39:14;20.13;;;16.33;;
60819;SDS011;46641;48.904;9.126;2023-02-11T19:44:05;18.93;;;15.87;;
60819;SDS011;46641;48.904;9.126;2023-02-11T19:48:57;21.37;;;16.47;;
60819;SDS011;46641;48.904;9.126;2023-02-11T19:53:49;23.07;;;16.87;;
60819;SDS011;46641;48.904;9.126;2023-02-11T19:58:40;22.63;;;17.20;;
60819;SDS011;46641;48.904;9.126;2023-02-11T20:03:31;21.27;;;17.47;;
60819;SDS011;46641;48.904;9.126;2023-02-11T20:08:21;21.43;;;17.43;;
60819;SDS011;46641;48.904;9.126;2023-02-11T20:13:12;20.83;;;17.30;;
60819;SDS011;46641;48.904;9.126;2023-02-11T20:18:02;20.77;;;16.67;;
60819;SDS011;46641;48.904;9.126;2023-02-11T20:22:52;21.43;;;16.93;;
60819;SDS011;46641;48.904;9.126;2023-02-11T20:27:43;23.87;;;17.20;;
60819;SDS011;46641;48.904;9.126;2023-02-11T20:32:33;33.80;;;22.60;;
60819;SDS011;46641;48.904;9.126;2023-02-11T20:37:27;31.70;;;22.20;;
60819;SDS011;46641;48.904;9.126;2023-02-11T20:42:17;24.17;;;18.43;;
60819;SDS011;46641;48.904;9.126;2023-02-11T20:47:07;23.40;;;18.67;;
60819;SDS011;46641;48.904;9.126;2023-02-11T20:51:58;22.00;;;18.60;;
60819;SDS011;46641;48.904;9.126;2023-02-11T20:56:48;24.58;;;19.58;;
60819;SDS011;46641;48.904;9.126;2023-02-11T21:01:43;23.27;;;18.57;;
60819;SDS011;46641;48.904;9.126;2023-02-11T21:06:37;26.57;;;20.90;;
60819;SDS011;46641;48.904;9.126;2023-02-11T21:11:29;23.80;;;18.97;;
60819;SDS011;46641;48.904;9.126;2023-02-11T21:16:20;21.70;;;17.70;;
60819;SDS011;46641;48.904;9.126;2023-02-11T21:21:10;25.43;;;20.43;;
60819;SDS011;46641;48.904;9.126;2023-02-11T21:26:01;23.07;;;19.07;;
60819;SDS011;46641;48.904;9.126;2023-02-11T21:30:52;23.57;;;19.20;;
60819;SDS011;46641;48.904;9.126;2023-02-11T21:35:43;27.70;;;20.03;;
60819;SDS011;46641;48.904;9.126;2023-02-11T21:40:34;23.63;;;18.80;;
60819;SDS011;46641;48.904;9.126;2023-02-11T21:45:24;23.27;;;17.42;;
60819;SDS011;46641;48.904;9.126;2023-02-11T21:50:15;22.90;;;17.37;;
60819;SDS011;46641;48.904;9.126;2023-02-11T21:55:05;22.10;;;18.63;;
60819;SDS011;46641;48.904;9.126;2023-02-11T21:59:56;23.30;;;18.27;;
60819;SDS011;46641;48.904;9.126;2023-02-11T22:04:46;22.33;;;18.00;;
60819;SDS011;46641;48.904;9.126;2023-02-11T22:09:37;21.87;;;18.50;;
60819;SDS011;46641;48.904;9.126;2023-02-11T22:14:28;20.23;;;17.07;;
60819;SDS011;46641;48.904;9.126;2023-02-11T22:19:18;21.20;;;16.70;;
60819;SDS011;46641;48.904;9.126;2023-02-11T22:24:09;24.50;;;19.33;;
60819;SDS011;46641;48.904;9.126;2023-02-11T22:28:59;25.57;;;19.23;;
60819;SDS011;46641;48.904;9.126;2023-02-11T22:33:50;24.27;;;18.80;;
60819;SDS011;46641;48.904;9.126;2023-02-11T22:38:40;22.93;;;18.33;;
60819;SDS011;46641;48.904;9.126;2023-02-11T22:43:30;28.03;;;19.20;;
60819;SDS011;46641;48.904;9.126;2023-02-11T22:48:21;23.07;;;18.63;;
60819;SDS011;46641;48.904;9.126;2023-02-11T22:53:11;24.13;;;18.43;;
60819;SDS011;46641;48.904;9.126;2023-02-11T22:58:01;24.00;;;19.73;;
60819;SDS011;46641;48.904;9.126;2023-02-11T23:02:52;24.98;;;20.15;;
60819;SDS011;46641;48.904;9.126;2023-02-11T23:07:42;22.07;;;17.40;;
60819;SDS011;46641;48.904;9.126;2023-02-11T23:12:32;25.90;;;19.67;;
60819;SDS011;46641;48.904;9.126;2023-02-11T23:17:23;25.77;;;20.87;;
60819;SDS011;46641;48.904;9.126;2023-02-11T23:22:13;25.33;;;20.53;;
60819;SDS011;46641;48.904;9.126;2023-02-11T23:27:03;23.37;;;19.10;;
60819;SDS011;46641;48.904;9.126;2023-02-11T23:31:54;27.87;;;19.67;;
60819;SDS011;46641;48.904;9.126;2023-02-11T23:36:44;28.52;;;19.25;;
60819;SDS011;46641;48.904;9.126;2023-02-11T23:41:34;22.30;;;16.97;;
60819;SDS011;46641;48.904;9.126;2023-02-11T23:46:25;26.55;;;19.15;;
60819;SDS011;46641;48.904;9.126;2023-02-11T23:51:16;24.27;;;18.13;;
60819;SDS011;46641;48.904;9.126;2023-02-11T23:56:13;27.70;;;21.33;;
